createdAt,value
2022-07-31T00:00:09.075Z,2.400
2022-07-31T00:01:08.060Z,2.200
2022-07-31T00:02:07.809Z,2.599
2022-07-31T00:03:07.684Z,2.200
2022-07-31T00:04:07.538Z,2.299
2022-07-31T00:05:08.620Z,2.400
2022-07-31T00:06:07.418Z,2.299
2022-07-31T00:07:07.510Z,2.400
2022-07-31T00:09:08.029Z,2.5
2022-07-31T00:10:07.425Z,2.400
2022-07-31T00:11:07.383Z,2.299
2022-07-31T00:12:07.978Z,2.200
2022-07-31T00:13:07.572Z,2.299
2022-07-31T00:14:08.070Z,2.5
2022-07-31T00:15:07.980Z,2.200
2022-07-31T00:16:07.544Z,2.599
2022-07-31T00:17:08.235Z,2.099
2022-07-31T00:18:07.799Z,2.299
2022-07-31T00:19:07.476Z,2.099
2022-07-31T00:20:08.440Z,2.200
2022-07-31T00:21:08.191Z,2.299
2022-07-31T00:22:07.797Z,2.099
2022-07-31T00:23:07.909Z,2.400
2022-07-31T00:24:07.612Z,2.200
2022-07-31T00:25:07.574Z,2.400
2022-07-31T00:26:07.668Z,2.200
2022-07-31T00:27:07.600Z,2.400
2022-07-31T00:28:07.436Z,2.299
2022-07-31T00:29:07.599Z,2.5
2022-07-31T00:30:07.727Z,2.400
2022-07-31T00:31:07.850Z,2.099
2022-07-31T00:32:07.638Z,2.400
2022-07-31T00:33:07.512Z,2.299
2022-07-31T00:34:07.406Z,2.200
2022-07-31T00:35:08.205Z,2.299
2022-07-31T00:36:07.677Z,2.099
2022-07-31T00:37:07.579Z,2.400
2022-07-31T00:38:26.205Z,2.299
2022-07-31T00:39:07.788Z,2.200
2022-07-31T00:40:07.436Z,2.099
2022-07-31T00:41:08.389Z,2.299
2022-07-31T00:42:08.201Z,2.200
2022-07-31T00:43:07.941Z,2.099
2022-07-31T00:44:07.621Z,2.299
2022-07-31T00:45:07.824Z,2.400
2022-07-31T00:46:07.969Z,2.200
2022-07-31T00:47:07.870Z,2.299
2022-07-31T00:48:07.408Z,2.200
2022-07-31T00:49:07.979Z,2.400
2022-07-31T00:50:07.966Z,2.200
2022-07-31T00:51:07.617Z,2.099
2022-07-31T00:52:07.115Z,2.200
2022-07-31T00:53:07.997Z,2.5
2022-07-31T00:54:07.459Z,2.299
2022-07-31T00:55:07.561Z,2.5
2022-07-31T00:56:07.883Z,2.299
2022-07-31T00:57:07.703Z,2.099
2022-07-31T00:58:07.947Z,2
2022-07-31T01:00:08.787Z,2.400
2022-07-31T01:01:07.619Z,2.5
2022-07-31T01:02:07.511Z,2.099
2022-07-31T01:03:08.013Z,2
2022-07-31T01:04:07.748Z,2.200
2022-07-31T01:06:07.875Z,2.299
2022-07-31T01:07:07.684Z,2.200
2022-07-31T01:08:07.292Z,2.299
2022-07-31T01:09:07.832Z,2.400
2022-07-31T01:10:07.614Z,2.599
2022-07-31T01:11:08.042Z,2.099
2022-07-31T01:12:07.995Z,2.400
2022-07-31T01:13:07.749Z,2
2022-07-31T01:14:07.725Z,2.200
2022-07-31T01:15:07.935Z,2.299
2022-07-31T01:18:07.998Z,2.099
2022-07-31T01:19:07.234Z,2.200
2022-07-31T01:23:07.604Z,2.099
2022-07-31T01:25:07.723Z,2.299
2022-07-31T01:26:07.422Z,2.400
2022-07-31T01:27:07.159Z,2.200
2022-07-31T01:28:07.360Z,2.5
2022-07-31T01:29:07.835Z,2.099
2022-07-31T01:30:07.715Z,2.5
2022-07-31T01:31:25.336Z,2.599
2022-07-31T01:32:07.981Z,2.099
2022-07-31T01:33:07.805Z,2.299
2022-07-31T01:34:07.679Z,2.400
2022-07-31T01:35:07.453Z,2.299
2022-07-31T01:36:07.424Z,2.5
2022-07-31T01:37:08.024Z,2.299
2022-07-31T01:38:07.475Z,2.400
2022-07-31T01:39:08.032Z,2.5
2022-07-31T01:40:07.538Z,2.099
2022-07-31T01:41:07.418Z,2.200
2022-07-31T01:42:07.852Z,2.599
2022-07-31T01:43:07.663Z,2.400
2022-07-31T01:44:07.239Z,2.200
2022-07-31T01:45:07.538Z,2.299
2022-07-31T01:46:07.940Z,2.099
2022-07-31T01:47:07.346Z,2.299
2022-07-31T01:49:07.538Z,2.200
2022-07-31T01:50:07.578Z,2.099
2022-07-31T01:51:07.293Z,2
2022-07-31T01:52:07.651Z,2.200
2022-07-31T01:53:07.649Z,2.299
2022-07-31T01:54:07.103Z,2.5
2022-07-31T01:55:07.839Z,2.400
2022-07-31T01:56:07.362Z,2.099
2022-07-31T01:57:07.720Z,2.200
2022-07-31T01:58:08.225Z,2.099
2022-07-31T01:59:19.942Z,1.899
2022-07-31T02:00:33.515Z,2.200
2022-07-31T02:01:07.927Z,2.099
2022-07-31T02:02:09.801Z,2.200
2022-07-31T02:03:09.514Z,2.299
2022-07-31T02:04:07.443Z,2.099
2022-07-31T02:07:07.976Z,2.700
2022-07-31T02:08:07.934Z,2
2022-07-31T02:09:07.689Z,2.299
2022-07-31T02:10:07.846Z,2.099
2022-07-31T02:12:09.581Z,2.299
2022-07-31T02:13:07.696Z,2.5
2022-07-31T02:14:07.977Z,2.299
2022-07-31T02:15:07.954Z,2.099
2022-07-31T02:16:07.632Z,2
2022-07-31T02:17:07.499Z,2.200
2022-07-31T02:18:07.365Z,2.5
2022-07-31T02:19:07.391Z,2
2022-07-31T02:20:07.921Z,2.099
2022-07-31T02:21:07.633Z,2.299
2022-07-31T02:22:08.204Z,2
2022-07-31T02:23:08.470Z,2.200
2022-07-31T02:24:07.731Z,2.299
2022-07-31T02:25:07.782Z,2.099
2022-07-31T02:26:08.081Z,2.200
2022-07-31T02:27:57.815Z,2.099
2022-07-31T02:28:08.592Z,2
2022-07-31T02:29:07.477Z,2.400
2022-07-31T02:30:08.060Z,2
2022-07-31T02:31:07.774Z,2.099
2022-07-31T02:33:07.663Z,1.899
2022-07-31T02:34:07.932Z,2.299
2022-07-31T02:35:07.841Z,2.200
2022-07-31T02:36:07.350Z,1.899
2022-07-31T02:37:07.875Z,2.099
2022-07-31T02:38:22.479Z,2
2022-07-31T02:39:08.499Z,2.599
2022-07-31T02:40:08.051Z,2.200
2022-07-31T02:41:07.560Z,2.299
2022-07-31T02:42:07.800Z,2.200
2022-07-31T02:43:07.558Z,2.299
2022-07-31T02:44:07.608Z,2.200
2022-07-31T02:46:07.201Z,2.5
2022-07-31T02:47:07.910Z,1.899
2022-07-31T02:48:07.507Z,2.099
2022-07-31T02:49:07.409Z,2
2022-07-31T02:50:07.603Z,2.200
2022-07-31T02:51:07.547Z,2
2022-07-31T02:52:07.557Z,2.099
2022-07-31T02:55:07.603Z,2.400
2022-07-31T02:56:07.343Z,2.200
2022-07-31T02:57:07.878Z,2
2022-07-31T02:58:07.454Z,2.099
2022-07-31T03:01:07.897Z,2
2022-07-31T03:02:07.904Z,2.099
2022-07-31T03:03:07.783Z,2
2022-07-31T03:04:07.408Z,2.099
2022-07-31T03:05:08.277Z,2.200
2022-07-31T03:07:07.330Z,2.299
2022-07-31T03:08:27.112Z,2.200
2022-07-31T03:09:08.121Z,2
2022-07-31T03:10:08.576Z,2.299
2022-07-31T03:13:07.358Z,2.200
2022-07-31T03:14:07.871Z,2.299
2022-07-31T03:15:07.687Z,2.5
2022-07-31T03:16:07.188Z,2
2022-07-31T03:17:07.802Z,1.899
2022-07-31T03:18:08.412Z,2.400
2022-07-31T03:19:07.318Z,2.099
2022-07-31T03:20:07.777Z,2.200
2022-07-31T03:21:07.452Z,2.400
2022-07-31T03:22:10.218Z,2.200
2022-07-31T03:23:07.767Z,2.400
2022-07-31T03:27:08.979Z,2.5
2022-07-31T03:28:07.729Z,2.700
2022-07-31T03:29:42.492Z,2.299
2022-07-31T03:30:07.877Z,2.400
2022-07-31T03:31:07.751Z,2.5
2022-07-31T03:32:07.869Z,2.299
2022-07-31T03:33:07.448Z,2.200
2022-07-31T03:35:07.684Z,2
2022-07-31T03:36:07.278Z,2.5
2022-07-31T03:37:07.772Z,2.700
2022-07-31T03:38:41.218Z,2.599
2022-07-31T03:39:08.201Z,2.5
2022-07-31T03:40:07.991Z,2.400
2022-07-31T03:41:07.659Z,2.700
2022-07-31T03:43:07.980Z,2.5
2022-07-31T03:45:07.542Z,2.400
2022-07-31T03:47:07.989Z,2.599
2022-07-31T03:48:07.756Z,2.5
2022-07-31T03:49:07.454Z,2.400
2022-07-31T03:50:08.162Z,2.299
2022-07-31T03:51:08.053Z,2.5
2022-07-31T03:52:12.024Z,2.400
2022-07-31T03:53:07.240Z,2.200
2022-07-31T03:55:07.457Z,2.400
2022-07-31T03:56:07.920Z,2.5
2022-07-31T03:58:07.173Z,2.400
2022-07-31T03:59:07.408Z,2.5
2022-07-31T04:00:16.995Z,2.599
2022-07-31T04:01:10.375Z,2.400
2022-07-31T04:02:07.805Z,2.200
2022-07-31T04:03:07.469Z,2.5
2022-07-31T04:04:07.948Z,2.599
2022-07-31T04:05:10.064Z,2.5
2022-07-31T04:06:08.141Z,2.299
2022-07-31T04:08:07.729Z,2.200
2022-07-31T04:09:15.351Z,2.5
2022-07-31T04:10:07.922Z,2.400
2022-07-31T04:12:07.695Z,2.299
2022-07-31T04:13:07.729Z,2.5
2022-07-31T04:14:07.402Z,2.299
2022-07-31T04:16:07.598Z,2.400
2022-07-31T04:17:07.430Z,2.599
2022-07-31T04:18:08.148Z,2.200
2022-07-31T04:19:08.306Z,2.299
2022-07-31T04:20:07.656Z,2.200
2022-07-31T04:21:07.502Z,2.299
2022-07-31T04:22:08.382Z,2.599
2022-07-31T04:23:07.666Z,2.299
2022-07-31T04:24:07.865Z,2.599
2022-07-31T04:25:08.255Z,2.299
2022-07-31T04:27:12.579Z,2.200
2022-07-31T04:28:07.958Z,2.299
2022-07-31T04:29:08.011Z,2.400
2022-07-31T04:30:07.942Z,2.599
2022-07-31T04:31:08.007Z,2.200
2022-07-31T04:32:08.032Z,2.599
2022-07-31T04:33:07.759Z,2.400
2022-07-31T04:34:07.404Z,2.200
2022-07-31T04:35:08.082Z,2.400
2022-07-31T04:37:08.195Z,2.200
2022-07-31T04:38:07.892Z,2.299
2022-07-31T04:40:07.617Z,2.5
2022-07-31T04:41:07.637Z,2.400
2022-07-31T04:44:07.415Z,2.5
2022-07-31T04:45:08.061Z,2.299
2022-07-31T04:46:17.531Z,2.400
2022-07-31T04:47:07.873Z,2.700
2022-07-31T04:48:07.678Z,2.400
2022-07-31T04:49:07.655Z,2.599
2022-07-31T04:50:07.552Z,2.299
2022-07-31T04:53:08.085Z,2.599
2022-07-31T04:54:07.697Z,2.400
2022-07-31T04:56:07.870Z,2.299
2022-07-31T04:57:07.558Z,2.5
2022-07-31T04:58:08.091Z,2.400
2022-07-31T04:59:07.848Z,2.200
2022-07-31T05:00:09.181Z,2.299
2022-07-31T05:02:08.136Z,2.799
2022-07-31T05:03:08.035Z,2.200
2022-07-31T05:04:07.779Z,2.400
2022-07-31T05:05:07.739Z,2.200
2022-07-31T05:06:07.394Z,2.400
2022-07-31T05:07:07.987Z,2.299
2022-07-31T05:08:07.423Z,2.400
2022-07-31T05:09:09.519Z,2.200
2022-07-31T05:10:08.034Z,2.299
2022-07-31T05:12:07.799Z,2.400
2022-07-31T05:14:07.391Z,2.099
2022-07-31T05:15:07.505Z,2.200
2022-07-31T05:17:07.751Z,2.099
2022-07-31T05:18:07.490Z,2.299
2022-07-31T05:19:14.620Z,2.400
2022-07-31T05:20:07.419Z,2.299
2022-07-31T05:21:08.254Z,2.400
2022-07-31T05:22:08.252Z,2.099
2022-07-31T05:24:07.696Z,2.299
2022-07-31T05:25:07.483Z,2.5
2022-07-31T05:26:07.471Z,2.200
2022-07-31T05:27:08.021Z,2.299
2022-07-31T05:29:08.117Z,2.5
2022-07-31T05:30:07.591Z,2.099
2022-07-31T05:32:07.723Z,2.200
2022-07-31T05:33:07.351Z,2
2022-07-31T05:34:07.539Z,2.299
2022-07-31T05:35:07.769Z,2.099
2022-07-31T05:36:07.330Z,2.400
2022-07-31T05:37:08.130Z,2.200
2022-07-31T05:38:07.445Z,2.400
2022-07-31T05:39:07.682Z,2.299
2022-07-31T05:40:07.989Z,2.400
2022-07-31T05:41:07.501Z,2.099
2022-07-31T05:43:07.734Z,2.200
2022-07-31T05:44:07.353Z,2.5
2022-07-31T05:45:08.258Z,2.299
2022-07-31T05:46:08.015Z,2.099
2022-07-31T05:47:07.877Z,2.200
2022-07-31T05:48:07.731Z,2.5
2022-07-31T05:49:07.579Z,2.200
2022-07-31T05:51:07.507Z,2.599
2022-07-31T05:52:07.907Z,2.099
2022-07-31T05:53:07.587Z,2.200
2022-07-31T05:54:07.587Z,2.099
2022-07-31T05:55:08.205Z,2
2022-07-31T05:58:08.020Z,2.099
2022-07-31T05:59:07.834Z,2.200
2022-07-31T06:00:08.604Z,2.299
2022-07-31T06:02:08.201Z,2
2022-07-31T06:03:07.606Z,1.899
2022-07-31T06:04:07.593Z,2.299
2022-07-31T06:05:07.684Z,2
2022-07-31T06:06:07.491Z,2.299
2022-07-31T06:07:08.236Z,1.799
2022-07-31T06:08:08.779Z,2.299
2022-07-31T06:09:07.757Z,2
2022-07-31T06:10:07.829Z,2.299
2022-07-31T06:11:07.832Z,2.099
2022-07-31T06:12:08.317Z,2
2022-07-31T06:13:08.258Z,2.099
2022-07-31T06:14:08.169Z,2.299
2022-07-31T06:15:08.380Z,2.099
2022-07-31T06:16:08.076Z,2.400
2022-07-31T06:17:08.163Z,2.099
2022-07-31T06:19:08.149Z,2.599
2022-07-31T06:20:08.212Z,2.099
2022-07-31T06:21:08.155Z,2.200
2022-07-31T06:22:08.340Z,2.400
2022-07-31T06:23:20.034Z,2.599
2022-07-31T06:24:08.023Z,2.099
2022-07-31T06:25:07.984Z,2.200
2022-07-31T06:26:07.322Z,2.400
2022-07-31T06:27:09.300Z,2.599
2022-07-31T06:28:10.289Z,2.299
2022-07-31T06:29:07.768Z,2.400
2022-07-31T06:31:07.885Z,2.200
2022-07-31T06:32:07.545Z,2.099
2022-07-31T06:33:08.684Z,2.299
2022-07-31T06:35:08.203Z,2.200
2022-07-31T06:36:08.067Z,2.099
2022-07-31T06:37:07.876Z,2
2022-07-31T06:38:07.743Z,2.099
2022-07-31T06:39:07.731Z,2.400
2022-07-31T06:40:07.453Z,1.399
2022-07-31T06:41:07.944Z,1.600
2022-07-31T06:42:07.739Z,1.799
2022-07-31T06:44:08.080Z,1.700
2022-07-31T06:45:08.108Z,1.899
2022-07-31T06:46:08.108Z,2.299
2022-07-31T06:48:07.460Z,1.700
2022-07-31T06:49:09.197Z,1.799
2022-07-31T06:50:08.718Z,1.5
2022-07-31T06:51:30.328Z,1.700
2022-07-31T06:54:07.718Z,1.5
2022-07-31T06:56:07.821Z,1.600
2022-07-31T06:58:08.154Z,1.5
2022-07-31T07:00:15.032Z,1.799
2022-07-31T07:01:08.051Z,1.600
2022-07-31T07:04:07.947Z,1.899
2022-07-31T07:05:08.223Z,1.600
2022-07-31T07:06:08.214Z,1.700
2022-07-31T07:08:07.573Z,1.899
2022-07-31T07:09:08.013Z,1.799
2022-07-31T07:11:11.997Z,1.600
2022-07-31T07:12:07.695Z,1.799
2022-07-31T07:13:07.430Z,1.600
2022-07-31T07:14:08.086Z,1.700
2022-07-31T07:17:07.722Z,1.799
2022-07-31T07:19:07.785Z,1.899
2022-07-31T07:20:07.605Z,1.5
2022-07-31T07:21:08.039Z,1.799
2022-07-31T07:22:07.770Z,1.899
2022-07-31T07:24:07.414Z,1.799
2022-07-31T07:25:07.870Z,1.700
2022-07-31T07:26:07.682Z,1.899
2022-07-31T07:27:07.556Z,2
2022-07-31T07:28:09.985Z,1.5
2022-07-31T07:29:08.118Z,1.600
2022-07-31T07:30:07.966Z,1.700
2022-07-31T07:31:07.781Z,1.899
2022-07-31T07:32:07.510Z,1.700
2022-07-31T07:34:07.921Z,1.399
2022-07-31T07:35:07.849Z,1.899
2022-07-31T07:36:07.645Z,1.799
2022-07-31T07:37:07.558Z,1.600
2022-07-31T07:38:07.220Z,1.399
2022-07-31T07:39:08.217Z,1.600
2022-07-31T07:40:07.822Z,1.5
2022-07-31T07:41:07.507Z,1.700
2022-07-31T07:42:08.058Z,1.200
2022-07-31T07:43:07.762Z,1.799
2022-07-31T07:44:07.465Z,1.5
2022-07-31T07:45:07.936Z,1
2022-07-31T07:46:07.980Z,1.399
2022-07-31T07:47:07.814Z,1.5
2022-07-31T07:48:07.663Z,1.600
2022-07-31T07:49:07.607Z,1.399
2022-07-31T07:50:07.430Z,1.5
2022-07-31T07:51:08.038Z,1.600
2022-07-31T07:52:07.688Z,1.399
2022-07-31T07:53:07.718Z,1.5
2022-07-31T07:54:07.701Z,1
2022-07-31T07:55:08.040Z,1.399
2022-07-31T07:56:07.730Z,1.5
2022-07-31T07:58:11.747Z,1
2022-07-31T07:59:15.093Z,1.399
2022-07-31T08:02:08.067Z,1.600
2022-07-31T08:03:48.353Z,1
2022-07-31T08:04:07.688Z,1.399
2022-07-31T08:05:08.099Z,1.799
2022-07-31T08:06:08.396Z,1.5
2022-07-31T08:07:07.968Z,1.600
2022-07-31T08:08:07.857Z,1.5
2022-07-31T08:09:07.770Z,1
2022-07-31T08:10:07.628Z,1.399
2022-07-31T08:12:07.900Z,1.5
2022-07-31T08:13:07.750Z,1
2022-07-31T08:14:07.704Z,1.200
2022-07-31T08:16:07.436Z,1
2022-07-31T08:18:07.319Z,1.399
2022-07-31T08:20:07.954Z,1
2022-07-31T08:21:07.718Z,1.200
2022-07-31T08:22:08.028Z,1
2022-07-31T08:23:07.542Z,1.100
2022-07-31T08:24:07.397Z,1.200
2022-07-31T08:26:07.671Z,1.399
2022-07-31T08:27:10.613Z,1
2022-07-31T08:28:11.184Z,1.200
2022-07-31T08:29:07.637Z,1
2022-07-31T08:31:08.585Z,1.399
2022-07-31T08:32:07.847Z,1.5
2022-07-31T08:33:07.527Z,1.399
2022-07-31T08:34:07.429Z,1.100
2022-07-31T08:35:07.511Z,1.200
2022-07-31T08:36:07.435Z,1
2022-07-31T08:39:07.672Z,1.100
2022-07-31T08:40:07.589Z,1
2022-07-31T08:41:07.874Z,1.100
2022-07-31T08:42:07.636Z,1
2022-07-31T08:43:19.375Z,1.200
2022-07-31T08:44:10.575Z,1
2022-07-31T08:45:07.977Z,1.100
2022-07-31T08:47:08.046Z,1
2022-07-31T08:48:07.847Z,1.100
2022-07-31T08:49:07.763Z,1
2022-07-31T08:51:08.183Z,1.200
2022-07-31T08:54:07.475Z,1.100
2022-07-31T08:55:08.383Z,1.200
2022-07-31T08:56:07.981Z,1.100
2022-07-31T08:58:08.401Z,1
2022-07-31T09:01:07.667Z,1.200
2022-07-31T09:02:07.815Z,1
2022-07-31T09:03:07.632Z,1.200
2022-07-31T09:04:07.839Z,0.800
2022-07-31T09:05:07.709Z,1.100
2022-07-31T09:07:08.168Z,0.899
2022-07-31T09:08:12.167Z,1
2022-07-31T09:10:07.619Z,1.100
2022-07-31T09:12:07.584Z,1
2022-07-31T09:13:07.414Z,1.100
2022-07-31T09:14:07.419Z,1
2022-07-31T09:16:07.671Z,1.100
2022-07-31T09:17:07.914Z,0.899
2022-07-31T09:18:07.790Z,1.100
2022-07-31T09:19:51.101Z,0.899
2022-07-31T09:20:07.764Z,1
2022-07-31T09:21:08.245Z,1.200
2022-07-31T09:22:11.053Z,1.100
2022-07-31T09:23:07.626Z,1
2022-07-31T09:25:08.277Z,0.800
2022-07-31T09:26:08.166Z,1
2022-07-31T09:29:08.194Z,1.799
2022-07-31T09:30:08.554Z,1.399
2022-07-31T09:31:07.541Z,1
2022-07-31T09:32:07.689Z,1.200
2022-07-31T09:33:08.166Z,1.5
2022-07-31T09:34:08.243Z,1.200
2022-07-31T09:35:08.760Z,1
2022-07-31T09:36:08.177Z,1.100
2022-07-31T09:37:07.797Z,0.899
2022-07-31T09:38:07.971Z,1.100
2022-07-31T09:39:07.584Z,1
2022-07-31T09:40:08.159Z,3.700
2022-07-31T09:41:53.678Z,2.400
2022-07-31T09:42:16.138Z,3.299
2022-07-31T09:43:08.319Z,2.200
2022-07-31T09:44:10.126Z,2.299
2022-07-31T09:45:09.250Z,2.900
2022-07-31T09:46:08.027Z,3.799
2022-07-31T09:47:08.263Z,3.200
2022-07-31T09:48:08.546Z,2.099
2022-07-31T09:49:08.698Z,3.200
2022-07-31T09:50:08.231Z,1.5
2022-07-31T09:51:08.181Z,3
2022-07-31T09:52:07.918Z,7
2022-07-31T09:53:07.872Z,2.299
2022-07-31T09:54:07.811Z,3.599
2022-07-31T09:55:14.264Z,2.299
2022-07-31T09:56:07.806Z,1.399
2022-07-31T09:57:07.903Z,1.200
2022-07-31T09:58:07.848Z,2
2022-07-31T09:59:07.754Z,2.299
2022-07-31T10:00:13.964Z,4
2022-07-31T10:01:08.252Z,6.5
2022-07-31T10:02:07.662Z,13.60
2022-07-31T10:03:07.575Z,3.799
2022-07-31T10:04:07.701Z,5.400
2022-07-31T10:05:07.975Z,3.599
2022-07-31T10:06:08.750Z,2
2022-07-31T10:07:08.201Z,7.099
2022-07-31T10:08:07.689Z,2.900
2022-07-31T10:09:07.749Z,2.299
2022-07-31T10:10:08.268Z,3.900
2022-07-31T10:11:08.402Z,17
2022-07-31T10:12:07.793Z,28.89
2022-07-31T10:13:07.789Z,23.5
2022-07-31T10:14:07.962Z,40.40
2022-07-31T10:15:08.439Z,26.5
2022-07-31T10:16:08.469Z,18
2022-07-31T10:17:07.746Z,23
2022-07-31T10:18:08.104Z,17.10
2022-07-31T10:19:08.213Z,8.899
2022-07-31T10:20:08.656Z,3.099
2022-07-31T10:21:07.757Z,1
2022-07-31T10:22:07.902Z,3.5
2022-07-31T10:23:07.694Z,1
2022-07-31T10:24:07.762Z,1.899
2022-07-31T10:25:08.319Z,1.799
2022-07-31T10:26:08.598Z,4.900
2022-07-31T10:27:09.301Z,2.400
2022-07-31T10:28:07.896Z,1
2022-07-31T10:29:07.983Z,1.600
2022-07-31T10:30:08.118Z,1
2022-07-31T10:31:08.560Z,1.200
2022-07-31T10:32:07.724Z,1
2022-07-31T10:33:27.995Z,0.800
2022-07-31T10:34:06.943Z,1
2022-07-31T10:35:08.066Z,1.5
2022-07-31T10:36:07.799Z,3.200
2022-07-31T10:37:11.238Z,4.400
2022-07-31T10:38:07.788Z,2.900
2022-07-31T10:39:08.038Z,3.200
2022-07-31T10:40:08.604Z,2.5
2022-07-31T10:41:07.576Z,1.799
2022-07-31T10:42:07.694Z,2.700
2022-07-31T10:43:07.566Z,4
2022-07-31T10:44:07.535Z,4.300
2022-07-31T10:45:07.662Z,1.799
2022-07-31T10:46:07.574Z,1.899
2022-07-31T10:47:07.787Z,2.200
2022-07-31T10:48:07.996Z,2.299
2022-07-31T10:49:08.779Z,1.5
2022-07-31T10:50:08.230Z,1.100
2022-07-31T10:51:08.347Z,0.899
2022-07-31T10:52:08.163Z,1
2022-07-31T10:53:08.083Z,1.899
2022-07-31T10:54:08.043Z,0.899
2022-07-31T10:55:08.101Z,1
2022-07-31T10:56:07.543Z,0.899
2022-07-31T10:57:07.801Z,1.100
2022-07-31T10:58:07.853Z,2.599
2022-07-31T10:59:07.604Z,1.100
2022-07-31T11:00:08.402Z,0.800
2022-07-31T11:01:08.358Z,2
2022-07-31T11:02:08.130Z,1.899
2022-07-31T11:03:11.894Z,1
2022-07-31T11:04:08.279Z,1.799
2022-07-31T11:06:07.942Z,1.700
2022-07-31T11:07:08.097Z,0.899
2022-07-31T11:08:07.563Z,1.100
2022-07-31T11:10:08.112Z,0.899
2022-07-31T11:11:07.474Z,1.100
2022-07-31T11:12:07.917Z,0.899
2022-07-31T11:13:08.036Z,1
2022-07-31T11:14:08.332Z,1.100
2022-07-31T11:15:08.014Z,1.200
2022-07-31T11:18:22.427Z,1.100
2022-07-31T11:19:07.845Z,1
2022-07-31T11:20:08.287Z,0.899
2022-07-31T11:21:28.858Z,1.399
2022-07-31T11:22:31.864Z,1.100
2022-07-31T11:23:08.285Z,6.199
2022-07-31T11:24:11.456Z,1.700
2022-07-31T11:25:08.463Z,1.5
2022-07-31T11:26:08.108Z,1
2022-07-31T11:27:08.282Z,1.5
2022-07-31T11:30:01.735Z,1.200
2022-07-31T11:31:07.970Z,1
2022-07-31T11:32:07.802Z,1.399
2022-07-31T11:33:07.498Z,1
2022-07-31T11:34:07.663Z,0.899
2022-07-31T11:35:08.240Z,1
2022-07-31T11:36:08.427Z,1.100
2022-07-31T11:37:08.946Z,1.200
2022-07-31T11:38:07.969Z,1
2022-07-31T11:39:08.316Z,1.200
2022-07-31T11:40:07.785Z,1
2022-07-31T11:42:07.895Z,1.200
2022-07-31T11:43:25.639Z,1.100
2022-07-31T11:44:07.968Z,1.200
2022-07-31T11:46:08.283Z,1
2022-07-31T11:48:09.542Z,1.100
2022-07-31T11:49:08.168Z,1.200
2022-07-31T11:50:08.577Z,1
2022-07-31T11:51:08.228Z,1.100
2022-07-31T11:52:08.311Z,1.200
2022-07-31T11:53:08.324Z,1.5
2022-07-31T11:54:07.901Z,1
2022-07-31T11:55:09.329Z,1.399
2022-07-31T11:56:07.929Z,1
2022-07-31T11:57:08.178Z,1.200
2022-07-31T11:58:08.155Z,1
2022-07-31T11:59:07.891Z,1.100
2022-07-31T12:00:12.103Z,1.200
2022-07-31T12:01:08.589Z,1.100
2022-07-31T12:02:07.823Z,1.200
2022-07-31T12:03:08.224Z,1
2022-07-31T12:04:08.630Z,1.100
2022-07-31T12:05:08.299Z,1.399
2022-07-31T12:06:08.616Z,1.200
2022-07-31T12:08:07.766Z,1.100
2022-07-31T12:09:07.876Z,1.200
2022-07-31T12:10:10.092Z,1.100
2022-07-31T12:13:10.107Z,1
2022-07-31T12:14:08.028Z,1.200
2022-07-31T12:15:08.232Z,1.100
2022-07-31T12:16:08.289Z,1
2022-07-31T12:17:08.131Z,1.200
2022-07-31T12:21:07.957Z,1
2022-07-31T12:22:07.855Z,1.700
2022-07-31T12:23:07.774Z,1.100
2022-07-31T12:24:08.418Z,1.200
2022-07-31T12:25:09.046Z,1.399
2022-07-31T12:26:08.435Z,1.5
2022-07-31T12:27:07.818Z,1
2022-07-31T12:29:07.514Z,1.700
2022-07-31T12:30:08.735Z,1.200
2022-07-31T12:32:08.026Z,1
2022-07-31T12:34:07.990Z,1.200
2022-07-31T12:35:08.268Z,1.5
2022-07-31T12:36:08.292Z,1.200
2022-07-31T12:39:08.084Z,1.100
2022-07-31T12:40:08.236Z,1.5
2022-07-31T12:41:08.329Z,1.200
2022-07-31T12:42:07.984Z,1
2022-07-31T12:44:08.092Z,1.100
2022-07-31T12:45:19.748Z,1.5
2022-07-31T12:46:07.614Z,1.200
2022-07-31T12:48:07.927Z,1.399
2022-07-31T12:49:08.366Z,1
2022-07-31T12:50:07.998Z,1.100
2022-07-31T12:51:08.057Z,1.399
2022-07-31T12:53:08.253Z,1.5
2022-07-31T12:54:08.105Z,1.200
2022-07-31T12:55:08.020Z,1.100
2022-07-31T12:56:07.682Z,1
2022-07-31T12:57:07.702Z,1.399
2022-07-31T12:58:07.334Z,1.200
2022-07-31T12:59:07.993Z,1
2022-07-31T13:01:08.199Z,1.5
2022-07-31T13:02:08.527Z,1
2022-07-31T13:04:18.572Z,1.200
2022-07-31T13:05:08.134Z,1
2022-07-31T13:06:07.686Z,1.100
2022-07-31T13:07:07.951Z,1.200
2022-07-31T13:08:08.161Z,1.399
2022-07-31T13:09:08.547Z,1.200
2022-07-31T13:10:15.016Z,1
2022-07-31T13:12:08.467Z,1.399
2022-07-31T13:13:07.740Z,1.200
2022-07-31T13:14:08.479Z,1
2022-07-31T13:16:08.252Z,1.5
2022-07-31T13:17:08.309Z,1.399
2022-07-31T13:18:08.365Z,1.200
2022-07-31T13:21:08.105Z,1.600
2022-07-31T13:22:07.482Z,1.5
2022-07-31T13:23:08.176Z,1.200
2022-07-31T13:24:08.029Z,1
2022-07-31T13:25:08.733Z,1.700
2022-07-31T13:26:08.618Z,1
2022-07-31T13:27:07.908Z,1.399
2022-07-31T13:29:08.179Z,1.700
2022-07-31T13:30:08.316Z,1.600
2022-07-31T13:31:08.571Z,1
2022-07-31T13:32:07.671Z,1.5
2022-07-31T13:33:08.073Z,1.200
2022-07-31T13:36:07.569Z,1.5
2022-07-31T13:37:08.001Z,1.399
2022-07-31T13:38:08.254Z,1.200
2022-07-31T13:39:08.101Z,1.399
2022-07-31T13:40:08.606Z,1.5
2022-07-31T13:41:07.814Z,1.200
2022-07-31T13:42:07.971Z,1
2022-07-31T13:43:08.223Z,1.5
2022-07-31T13:44:07.952Z,1
2022-07-31T13:45:08.684Z,1.399
2022-07-31T13:48:09.609Z,1
2022-07-31T13:50:08.077Z,1.100
2022-07-31T13:51:08.631Z,1.200
2022-07-31T13:52:07.865Z,1
2022-07-31T13:54:07.855Z,1.399
2022-07-31T13:55:08.044Z,1
2022-07-31T13:58:07.528Z,1.399
2022-07-31T13:59:07.525Z,1
2022-07-31T14:00:08.802Z,1.5
2022-07-31T14:01:08.202Z,1.600
2022-07-31T14:02:08.173Z,1.399
2022-07-31T14:03:08.098Z,1.600
2022-07-31T14:04:10.710Z,1.200
2022-07-31T14:07:08.524Z,1
2022-07-31T14:09:08.140Z,1.399
2022-07-31T14:11:13.820Z,1.5
2022-07-31T14:12:07.917Z,1.399
2022-07-31T14:13:07.981Z,1
2022-07-31T14:15:08.790Z,1.5
2022-07-31T14:17:08.156Z,1.200
2022-07-31T14:18:08.308Z,1.5
2022-07-31T14:19:08.603Z,1
2022-07-31T14:21:08.190Z,1.399
2022-07-31T14:22:11.110Z,1
2022-07-31T14:23:07.447Z,1.5
2022-07-31T14:24:08.450Z,1
2022-07-31T14:26:07.733Z,1.399
2022-07-31T14:27:07.706Z,1
2022-07-31T14:30:08.576Z,1.700
2022-07-31T14:31:08.540Z,1.399
2022-07-31T14:32:08.454Z,1
2022-07-31T14:35:12.706Z,1.5
2022-07-31T14:37:08.156Z,1.399
2022-07-31T14:38:07.996Z,1
2022-07-31T14:39:08.095Z,1.5
2022-07-31T14:40:08.142Z,1.399
2022-07-31T14:42:08.206Z,1.600
2022-07-31T14:43:08.167Z,1.700
2022-07-31T14:44:07.925Z,1.399
2022-07-31T14:45:08.411Z,1.600
2022-07-31T14:46:08.551Z,1
2022-07-31T14:47:08.106Z,1.399
2022-07-31T14:48:08.272Z,1.5
2022-07-31T14:49:07.562Z,1
2022-07-31T14:51:07.513Z,1.5
2022-07-31T14:54:07.645Z,1.399
2022-07-31T14:55:07.479Z,1.5
2022-07-31T14:56:08.114Z,1.600
2022-07-31T14:57:08.123Z,1.399
2022-07-31T14:59:07.937Z,1
2022-07-31T15:00:08.739Z,1.399
2022-07-31T15:01:07.924Z,1.5
2022-07-31T15:02:08.155Z,1.600
2022-07-31T15:06:39.412Z,1.5
2022-07-31T15:08:07.525Z,1
2022-07-31T15:09:07.336Z,1.5
2022-07-31T15:11:08.278Z,1.399
2022-07-31T15:12:07.826Z,1
2022-07-31T15:13:07.787Z,1.5
2022-07-31T15:15:07.914Z,1.600
2022-07-31T15:17:08.644Z,1.5
2022-07-31T15:20:08.470Z,1.399
2022-07-31T15:21:07.702Z,1.5
2022-07-31T15:22:10.664Z,1.899
2022-07-31T15:23:08.005Z,1.600
2022-07-31T15:24:08.171Z,1.700
2022-07-31T15:25:08.519Z,1.5
2022-07-31T15:26:07.607Z,1.700
2022-07-31T15:27:08.321Z,1.5
2022-07-31T15:28:08.127Z,1.600
2022-07-31T15:29:08.634Z,1.5
2022-07-31T15:30:08.357Z,1.399
2022-07-31T15:31:07.669Z,1.200
2022-07-31T15:32:07.793Z,1.399
2022-07-31T15:36:12.265Z,1.5
2022-07-31T15:37:08.276Z,1.600
2022-07-31T15:38:07.692Z,1.5
2022-07-31T15:40:08.065Z,1
2022-07-31T15:41:08.073Z,1.700
2022-07-31T15:42:10.251Z,1.399
2022-07-31T15:44:07.137Z,1
2022-07-31T15:45:08.282Z,1.399
2022-07-31T15:46:08.269Z,1
2022-07-31T15:47:08.261Z,1.399
2022-07-31T15:49:08.086Z,1
2022-07-31T15:51:07.438Z,1.600
2022-07-31T15:52:17.997Z,1
2022-07-31T15:53:07.567Z,1.100
2022-07-31T15:54:07.649Z,1
2022-07-31T15:58:07.812Z,1.399
2022-07-31T15:59:07.557Z,1.200
2022-07-31T16:01:08.020Z,1.5
2022-07-31T16:02:08.382Z,1
2022-07-31T16:04:16.690Z,1.5
2022-07-31T16:06:07.766Z,1.399
2022-07-31T16:08:30.273Z,1
2022-07-31T16:08:30.616Z,1.399
2022-07-31T16:10:14.774Z,1.5
2022-07-31T16:11:08.287Z,1.399
2022-07-31T16:15:08.290Z,1.600